sensor_id;sensor_type;location;lat;lon;timestamp;P1;durP1;ratioP1;P2;durP2;ratioP2
13849;SDS011;6995;52.618;13.488;2022-11-18T00:00:48;40.40;;;37.03;;
13849;SDS011;6995;52.618;13.488;2022-11-18T00:03:14;38.60;;;35.30;;
13849;SDS011;6995;52.618;13.488;2022-11-18T00:05:40;40.10;;;36.60;;
13849;SDS011;6995;52.618;13.488;2022-11-18T00:08:06;38.43;;;35.37;;
13849;SDS011;6995;52.618;13.488;2022-11-18T00:10:32;39.67;;;36.33;;
13849;SDS011;6995;52.618;13.488;2022-11-18T00:12:57;39.83;;;36.33;;
13849;SDS011;6995;52.618;13.488;2022-11-18T00:15:41;38.80;;;35.60;;
13849;SDS011;6995;52.618;13.488;2022-11-18T00:18:07;39.67;;;36.53;;
13849;SDS011;6995;52.618;13.488;2022-11-18T00:20:33;40.90;;;37.43;;
13849;SDS011;6995;52.618;13.488;2022-11-18T00:22:59;39.63;;;36.23;;
13849;SDS011;6995;52.618;13.488;2022-11-18T00:25:25;39.97;;;36.73;;
13849;SDS011;6995;52.618;13.488;2022-11-18T00:27:51;39.13;;;35.80;;
13849;SDS011;6995;52.618;13.488;2022-11-18T00:30:18;39.57;;;36.30;;
13849;SDS011;6995;52.618;13.488;2022-11-18T00:32:43;38.63;;;35.23;;
13849;SDS011;6995;52.618;13.488;2022-11-18T00:35:09;40.03;;;36.53;;
13849;SDS011;6995;52.618;13.488;2022-11-18T00:37:35;40.33;;;36.87;;
13849;SDS011;6995;52.618;13.488;2022-11-18T00:40:03;37.67;;;34.37;;
13849;SDS011;6995;52.618;13.488;2022-11-18T00:42:29;40.60;;;37.13;;
13849;SDS011;6995;52.618;13.488;2022-11-18T00:45:13;39.50;;;36.10;;
13849;SDS011;6995;52.618;13.488;2022-11-18T00:47:38;38.33;;;35.10;;
13849;SDS011;6995;52.618;13.488;2022-11-18T00:50:04;39.60;;;36.03;;
13849;SDS011;6995;52.618;13.488;2022-11-18T00:52:30;40.97;;;37.63;;
13849;SDS011;6995;52.618;13.488;2022-11-18T00:54:56;40.37;;;36.97;;
13849;SDS011;6995;52.618;13.488;2022-11-18T00:57:21;39.40;;;36.00;;
13849;SDS011;6995;52.618;13.488;2022-11-18T00:59:47;40.03;;;36.57;;
13849;SDS011;6995;52.618;13.488;2022-11-18T01:02:13;39.93;;;36.43;;
13849;SDS011;6995;52.618;13.488;2022-11-18T01:04:38;39.23;;;35.90;;
13849;SDS011;6995;52.618;13.488;2022-11-18T01:07:04;39.27;;;35.90;;
13849;SDS011;6995;52.618;13.488;2022-11-18T01:09:30;40.70;;;37.20;;
13849;SDS011;6995;52.618;13.488;2022-11-18T01:11:55;39.53;;;36.23;;
13849;SDS011;6995;52.618;13.488;2022-11-18T01:14:39;41.33;;;37.70;;
13849;SDS011;6995;52.618;13.488;2022-11-18T01:17:05;42.07;;;38.47;;
13849;SDS011;6995;52.618;13.488;2022-11-18T01:19:31;39.63;;;36.03;;
13849;SDS011;6995;52.618;13.488;2022-11-18T01:21:56;38.00;;;34.53;;
13849;SDS011;6995;52.618;13.488;2022-11-18T01:24:27;38.87;;;35.57;;
13849;SDS011;6995;52.618;13.488;2022-11-18T01:26:56;40.07;;;36.27;;
13849;SDS011;6995;52.618;13.488;2022-11-18T01:29:22;39.97;;;36.70;;
13849;SDS011;6995;52.618;13.488;2022-11-18T01:31:48;41.57;;;37.87;;
13849;SDS011;6995;52.618;13.488;2022-11-18T01:34:13;38.17;;;35.03;;
13849;SDS011;6995;52.618;13.488;2022-11-18T01:36:39;40.13;;;36.73;;
13849;SDS011;6995;52.618;13.488;2022-11-18T01:39:04;42.67;;;39.10;;
13849;SDS011;6995;52.618;13.488;2022-11-18T01:41:30;39.40;;;36.00;;
13849;SDS011;6995;52.618;13.488;2022-11-18T01:43:57;41.43;;;37.80;;
13849;SDS011;6995;52.618;13.488;2022-11-18T01:46:26;42.70;;;38.97;;
13849;SDS011;6995;52.618;13.488;2022-11-18T01:48:58;42.87;;;39.23;;
13849;SDS011;6995;52.618;13.488;2022-11-18T01:51:44;42.23;;;38.73;;
13849;SDS011;6995;52.618;13.488;2022-11-18T01:54:17;42.77;;;39.27;;
13849;SDS011;6995;52.618;13.488;2022-11-18T01:56:51;38.13;;;34.80;;
13849;SDS011;6995;52.618;13.488;2022-11-18T01:59:21;42.93;;;39.07;;
13849;SDS011;6995;52.618;13.488;2022-11-18T02:01:51;38.97;;;35.50;;
13849;SDS011;6995;52.618;13.488;2022-11-18T02:04:19;42.87;;;39.20;;
13849;SDS011;6995;52.618;13.488;2022-11-18T02:06:47;43.43;;;39.73;;
13849;SDS011;6995;52.618;13.488;2022-11-18T02:09:13;41.80;;;38.00;;
13849;SDS011;6995;52.618;13.488;2022-11-18T02:11:40;39.03;;;35.73;;
13849;SDS011;6995;52.618;13.488;2022-11-18T02:14:22;41.50;;;38.03;;
13849;SDS011;6995;52.618;13.488;2022-11-18T02:25:20;38.90;;;35.67;;
13849;SDS011;6995;52.618;13.488;2022-11-18T02:30:43;41.20;;;37.70;;
13849;SDS011;6995;52.618;13.488;2022-11-18T02:33:27;42.70;;;39.10;;
13849;SDS011;6995;52.618;13.488;2022-11-18T02:37:01;41.00;;;37.63;;
13849;SDS011;6995;52.618;13.488;2022-11-18T02:39:04;39.37;;;36.03;;
13849;SDS011;6995;52.618;13.488;2022-11-18T02:41:38;43.90;;;40.40;;
13849;SDS011;6995;52.618;13.488;2022-11-18T02:44:09;45.43;;;41.70;;
13849;SDS011;6995;52.618;13.488;2022-11-18T02:46:41;40.80;;;37.30;;
13849;SDS011;6995;52.618;13.488;2022-11-18T02:49:19;41.23;;;37.70;;
13849;SDS011;6995;52.618;13.488;2022-11-18T02:51:51;40.97;;;37.70;;
13849;SDS011;6995;52.618;13.488;2022-11-18T02:54:19;38.73;;;35.43;;
13849;SDS011;6995;52.618;13.488;2022-11-18T02:56:47;44.07;;;40.50;;
13849;SDS011;6995;52.618;13.488;2022-11-18T02:59:18;41.10;;;37.60;;
13849;SDS011;6995;52.618;13.488;2022-11-18T03:01:45;41.97;;;38.47;;
13849;SDS011;6995;52.618;13.488;2022-11-18T03:04:12;41.57;;;37.97;;
13849;SDS011;6995;52.618;13.488;2022-11-18T03:06:39;40.90;;;37.40;;
13849;SDS011;6995;52.618;13.488;2022-11-18T03:09:35;40.10;;;36.70;;
13849;SDS011;6995;52.618;13.488;2022-11-18T03:12:12;39.47;;;35.87;;
13849;SDS011;6995;52.618;13.488;2022-11-18T03:20:30;45.60;;;41.80;;
13849;SDS011;6995;52.618;13.488;2022-11-18T03:23:05;40.83;;;36.90;;
13849;SDS011;6995;52.618;13.488;2022-11-18T03:33:45;45.10;;;41.30;;
13849;SDS011;6995;52.618;13.488;2022-11-18T03:36:16;44.13;;;40.10;;
13849;SDS011;6995;52.618;13.488;2022-11-18T03:38:46;44.33;;;40.23;;
13849;SDS011;6995;52.618;13.488;2022-11-18T03:41:15;44.23;;;40.03;;
13849;SDS011;6995;52.618;13.488;2022-11-18T03:43:44;46.00;;;41.70;;
13849;SDS011;6995;52.618;13.488;2022-11-18T03:46:19;45.60;;;41.33;;
13849;SDS011;6995;52.618;13.488;2022-11-18T03:48:52;46.37;;;41.97;;
13849;SDS011;6995;52.618;13.488;2022-11-18T03:51:31;44.73;;;40.23;;
13849;SDS011;6995;52.618;13.488;2022-11-18T03:54:06;49.30;;;44.63;;
13849;SDS011;6995;52.618;13.488;2022-11-18T03:56:38;46.97;;;42.57;;
13849;SDS011;6995;52.618;13.488;2022-11-18T03:59:12;47.47;;;42.80;;
13849;SDS011;6995;52.618;13.488;2022-11-18T04:04:11;51.10;;;46.03;;
13849;SDS011;6995;52.618;13.488;2022-11-18T04:09:10;49.83;;;44.57;;
13849;SDS011;6995;52.618;13.488;2022-11-18T04:12:16;46.20;;;41.50;;
13849;SDS011;6995;52.618;13.488;2022-11-18T04:14:37;49.47;;;44.10;;
13849;SDS011;6995;52.618;13.488;2022-11-18T04:17:15;47.90;;;43.23;;
13849;SDS011;6995;52.618;13.488;2022-11-18T04:19:44;47.23;;;42.43;;
13849;SDS011;6995;52.618;13.488;2022-11-18T04:22:10;48.33;;;42.70;;
13849;SDS011;6995;52.618;13.488;2022-11-18T04:24:36;50.73;;;45.67;;
13849;SDS011;6995;52.618;13.488;2022-11-18T04:27:02;51.33;;;46.47;;
13849;SDS011;6995;52.618;13.488;2022-11-18T04:29:29;48.17;;;43.43;;
13849;SDS011;6995;52.618;13.488;2022-11-18T04:31:55;47.27;;;42.90;;
13849;SDS011;6995;52.618;13.488;2022-11-18T04:34:21;50.03;;;45.37;;
13849;SDS011;6995;52.618;13.488;2022-11-18T04:36:46;48.57;;;43.77;;
13849;SDS011;6995;52.618;13.488;2022-11-18T04:39:12;49.90;;;45.33;;
13849;SDS011;6995;52.618;13.488;2022-11-18T04:41:38;52.73;;;47.87;;
13849;SDS011;6995;52.618;13.488;2022-11-18T04:44:26;45.67;;;41.03;;
13849;SDS011;6995;52.618;13.488;2022-11-18T04:46:53;44.67;;;40.50;;
13849;SDS011;6995;52.618;13.488;2022-11-18T04:49:20;45.93;;;41.53;;
13849;SDS011;6995;52.618;13.488;2022-11-18T04:51:47;47.40;;;42.80;;
13849;SDS011;6995;52.618;13.488;2022-11-18T04:54:13;48.20;;;43.80;;
13849;SDS011;6995;52.618;13.488;2022-11-18T04:56:41;45.37;;;40.97;;
13849;SDS011;6995;52.618;13.488;2022-11-18T04:59:07;43.70;;;39.50;;
13849;SDS011;6995;52.618;13.488;2022-11-18T05:01:33;43.43;;;39.03;;
13849;SDS011;6995;52.618;13.488;2022-11-18T05:03:59;44.93;;;40.63;;
13849;SDS011;6995;52.618;13.488;2022-11-18T05:06:26;46.83;;;42.47;;
13849;SDS011;6995;52.618;13.488;2022-11-18T05:08:52;44.20;;;40.00;;
13849;SDS011;6995;52.618;13.488;2022-11-18T05:11:18;44.00;;;39.50;;
13849;SDS011;6995;52.618;13.488;2022-11-18T05:14:02;44.70;;;40.40;;
13849;SDS011;6995;52.618;13.488;2022-11-18T05:16:28;45.00;;;40.77;;
13849;SDS011;6995;52.618;13.488;2022-11-18T05:18:54;45.27;;;41.10;;
13849;SDS011;6995;52.618;13.488;2022-11-18T05:21:20;43.70;;;39.47;;
13849;SDS011;6995;52.618;13.488;2022-11-18T05:23:45;44.17;;;40.10;;
13849;SDS011;6995;52.618;13.488;2022-11-18T05:26:11;44.10;;;40.20;;
13849;SDS011;6995;52.618;13.488;2022-11-18T05:28:37;42.03;;;38.23;;
13849;SDS011;6995;52.618;13.488;2022-11-18T05:31:10;40.03;;;36.33;;
13849;SDS011;6995;52.618;13.488;2022-11-18T05:33:39;38.13;;;34.67;;
13849;SDS011;6995;52.618;13.488;2022-11-18T05:36:06;41.27;;;37.37;;
13849;SDS011;6995;52.618;13.488;2022-11-18T05:38:37;39.10;;;35.70;;
13849;SDS011;6995;52.618;13.488;2022-11-18T05:41:03;41.83;;;38.30;;
13849;SDS011;6995;52.618;13.488;2022-11-18T05:43:29;41.20;;;37.70;;
13849;SDS011;6995;52.618;13.488;2022-11-18T05:45:55;37.17;;;33.87;;
13849;SDS011;6995;52.618;13.488;2022-11-18T05:48:21;39.77;;;36.40;;
13849;SDS011;6995;52.618;13.488;2022-11-18T05:50:49;35.90;;;32.93;;
13849;SDS011;6995;52.618;13.488;2022-11-18T05:53:16;40.30;;;37.10;;
13849;SDS011;6995;52.618;13.488;2022-11-18T05:56:05;37.23;;;34.13;;
13849;SDS011;6995;52.618;13.488;2022-11-18T05:58:49;38.33;;;34.90;;
13849;SDS011;6995;52.618;13.488;2022-11-18T06:01:17;37.80;;;34.77;;
13849;SDS011;6995;52.618;13.488;2022-11-18T06:03:51;37.73;;;34.83;;
13849;SDS011;6995;52.618;13.488;2022-11-18T06:06:17;37.20;;;34.13;;
13849;SDS011;6995;52.618;13.488;2022-11-18T06:08:50;40.77;;;37.37;;
13849;SDS011;6995;52.618;13.488;2022-11-18T06:11:18;38.13;;;34.87;;
13849;SDS011;6995;52.618;13.488;2022-11-18T06:13:52;37.67;;;34.77;;
13849;SDS011;6995;52.618;13.488;2022-11-18T06:16:25;38.53;;;35.47;;
13849;SDS011;6995;52.618;13.488;2022-11-18T06:18:53;39.57;;;36.50;;
13849;SDS011;6995;52.618;13.488;2022-11-18T06:21:19;41.63;;;38.17;;
13849;SDS011;6995;52.618;13.488;2022-11-18T06:23:45;37.23;;;34.13;;
13849;SDS011;6995;52.618;13.488;2022-11-18T06:26:12;42.70;;;39.27;;
13849;SDS011;6995;52.618;13.488;2022-11-18T06:28:39;40.73;;;36.93;;
13849;SDS011;6995;52.618;13.488;2022-11-18T06:31:07;39.87;;;36.37;;
13849;SDS011;6995;52.618;13.488;2022-11-18T06:33:33;39.90;;;36.63;;
13849;SDS011;6995;52.618;13.488;2022-11-18T06:35:59;40.93;;;37.63;;
13849;SDS011;6995;52.618;13.488;2022-11-18T06:38:24;40.37;;;36.87;;
13849;SDS011;6995;52.618;13.488;2022-11-18T06:40:50;40.97;;;37.60;;
13849;SDS011;6995;52.618;13.488;2022-11-18T06:43:16;42.90;;;39.40;;
13849;SDS011;6995;52.618;13.488;2022-11-18T06:46:01;40.00;;;36.63;;
13849;SDS011;6995;52.618;13.488;2022-11-18T06:48:47;40.37;;;36.80;;
13849;SDS011;6995;52.618;13.488;2022-11-18T06:51:13;41.30;;;37.67;;
13849;SDS011;6995;52.618;13.488;2022-11-18T06:53:38;45.57;;;42.03;;
13849;SDS011;6995;52.618;13.488;2022-11-18T06:56:05;44.00;;;40.13;;
13849;SDS011;6995;52.618;13.488;2022-11-18T06:58:32;42.03;;;38.53;;
13849;SDS011;6995;52.618;13.488;2022-11-18T07:03:35;38.73;;;35.13;;
13849;SDS011;6995;52.618;13.488;2022-11-18T07:06:00;38.60;;;35.10;;
13849;SDS011;6995;52.618;13.488;2022-11-18T07:08:26;42.80;;;39.17;;
13849;SDS011;6995;52.618;13.488;2022-11-18T07:10:52;40.90;;;37.30;;
13849;SDS011;6995;52.618;13.488;2022-11-18T07:13:18;40.03;;;36.50;;
13849;SDS011;6995;52.618;13.488;2022-11-18T07:15:43;42.53;;;38.93;;
13849;SDS011;6995;52.618;13.488;2022-11-18T07:18:09;39.70;;;36.23;;
13849;SDS011;6995;52.618;13.488;2022-11-18T07:20:35;41.60;;;37.97;;
13849;SDS011;6995;52.618;13.488;2022-11-18T07:23:13;39.60;;;36.20;;
13849;SDS011;6995;52.618;13.488;2022-11-18T07:25:38;39.03;;;35.23;;
13849;SDS011;6995;52.618;13.488;2022-11-18T07:28:04;42.10;;;38.27;;
13849;SDS011;6995;52.618;13.488;2022-11-18T07:30:30;41.87;;;38.53;;
13849;SDS011;6995;52.618;13.488;2022-11-18T07:32:55;42.27;;;38.47;;
13849;SDS011;6995;52.618;13.488;2022-11-18T07:35:21;41.23;;;37.63;;
13849;SDS011;6995;52.618;13.488;2022-11-18T07:37:47;41.33;;;37.97;;
13849;SDS011;6995;52.618;13.488;2022-11-18T07:40:12;40.73;;;37.03;;
13849;SDS011;6995;52.618;13.488;2022-11-18T07:42:38;39.67;;;36.40;;
13849;SDS011;6995;52.618;13.488;2022-11-18T07:45:09;41.37;;;37.67;;
13849;SDS011;6995;52.618;13.488;2022-11-18T07:47:36;41.57;;;37.77;;
13849;SDS011;6995;52.618;13.488;2022-11-18T07:50:02;41.50;;;37.77;;
13849;SDS011;6995;52.618;13.488;2022-11-18T07:52:29;41.20;;;37.60;;
13849;SDS011;6995;52.618;13.488;2022-11-18T07:54:54;42.73;;;39.13;;
13849;SDS011;6995;52.618;13.488;2022-11-18T07:57:20;43.03;;;39.23;;
13849;SDS011;6995;52.618;13.488;2022-11-18T07:59:46;43.27;;;39.67;;
13849;SDS011;6995;52.618;13.488;2022-11-18T08:02:12;44.17;;;40.33;;
13849;SDS011;6995;52.618;13.488;2022-11-18T08:04:37;42.90;;;39.37;;
13849;SDS011;6995;52.618;13.488;2022-11-18T08:07:03;38.97;;;35.57;;
13849;SDS011;6995;52.618;13.488;2022-11-18T08:09:29;43.70;;;39.80;;
13849;SDS011;6995;52.618;13.488;2022-11-18T08:11:54;41.33;;;37.93;;
13849;SDS011;6995;52.618;13.488;2022-11-18T08:14:20;41.20;;;37.87;;
13849;SDS011;6995;52.618;13.488;2022-11-18T08:16:48;41.47;;;37.97;;
13849;SDS011;6995;52.618;13.488;2022-11-18T08:19:14;42.57;;;38.60;;
13849;SDS011;6995;52.618;13.488;2022-11-18T08:21:40;43.57;;;40.07;;
13849;SDS011;6995;52.618;13.488;2022-11-18T08:24:08;42.23;;;38.80;;
13849;SDS011;6995;52.618;13.488;2022-11-18T08:26:34;39.83;;;36.53;;
13849;SDS011;6995;52.618;13.488;2022-11-18T08:29:00;41.73;;;38.43;;
13849;SDS011;6995;52.618;13.488;2022-11-18T08:31:27;39.57;;;36.30;;
13849;SDS011;6995;52.618;13.488;2022-11-18T08:33:56;41.83;;;38.17;;
13849;SDS011;6995;52.618;13.488;2022-11-18T08:36:25;40.40;;;37.07;;
13849;SDS011;6995;52.618;13.488;2022-11-18T08:38:53;39.73;;;36.57;;
13849;SDS011;6995;52.618;13.488;2022-11-18T08:41:24;39.67;;;36.37;;
13849;SDS011;6995;52.618;13.488;2022-11-18T08:43:57;37.23;;;33.90;;
13849;SDS011;6995;52.618;13.488;2022-11-18T08:46:24;40.43;;;37.17;;
13849;SDS011;6995;52.618;13.488;2022-11-18T08:48:50;39.13;;;35.77;;
13849;SDS011;6995;52.618;13.488;2022-11-18T08:51:17;36.33;;;33.33;;
13849;SDS011;6995;52.618;13.488;2022-11-18T08:53:43;39.80;;;36.37;;
13849;SDS011;6995;52.618;13.488;2022-11-18T08:56:13;38.53;;;35.33;;
13849;SDS011;6995;52.618;13.488;2022-11-18T08:58:40;38.93;;;35.73;;
13849;SDS011;6995;52.618;13.488;2022-11-18T09:01:06;36.57;;;33.57;;
13849;SDS011;6995;52.618;13.488;2022-11-18T09:03:33;38.60;;;35.33;;
13849;SDS011;6995;52.618;13.488;2022-11-18T09:08:37;38.40;;;35.03;;
13849;SDS011;6995;52.618;13.488;2022-11-18T09:11:07;36.13;;;32.93;;
13849;SDS011;6995;52.618;13.488;2022-11-18T09:13:33;36.73;;;33.67;;
13849;SDS011;6995;52.618;13.488;2022-11-18T09:16:00;37.07;;;34.03;;
13849;SDS011;6995;52.618;13.488;2022-11-18T09:18:26;33.63;;;30.83;;
13849;SDS011;6995;52.618;13.488;2022-11-18T09:21:02;33.80;;;31.20;;
13849;SDS011;6995;52.618;13.488;2022-11-18T09:23:30;38.17;;;35.57;;
13849;SDS011;6995;52.618;13.488;2022-11-18T09:26:00;33.00;;;30.53;;
13849;SDS011;6995;52.618;13.488;2022-11-18T09:28:53;34.20;;;31.63;;
13849;SDS011;6995;52.618;13.488;2022-11-18T09:31:18;33.77;;;31.07;;
13849;SDS011;6995;52.618;13.488;2022-11-18T09:33:44;36.77;;;33.90;;
13849;SDS011;6995;52.618;13.488;2022-11-18T09:36:18;34.77;;;32.33;;
13849;SDS011;6995;52.618;13.488;2022-11-18T09:38:45;34.37;;;31.83;;
13849;SDS011;6995;52.618;13.488;2022-11-18T09:47:02;34.43;;;31.83;;
13849;SDS011;6995;52.618;13.488;2022-11-18T09:49:37;33.00;;;30.47;;
13849;SDS011;6995;52.618;13.488;2022-11-18T09:52:16;30.03;;;27.93;;
13849;SDS011;6995;52.618;13.488;2022-11-18T09:54:45;33.23;;;30.93;;
13849;SDS011;6995;52.618;13.488;2022-11-18T09:59:46;32.30;;;29.77;;
13849;SDS011;6995;52.618;13.488;2022-11-18T10:04:40;31.47;;;29.17;;
13849;SDS011;6995;52.618;13.488;2022-11-18T10:07:09;30.77;;;28.57;;
13849;SDS011;6995;52.618;13.488;2022-11-18T10:09:44;29.60;;;27.50;;
13849;SDS011;6995;52.618;13.488;2022-11-18T10:12:26;30.43;;;28.20;;
13849;SDS011;6995;52.618;13.488;2022-11-18T10:17:46;28.97;;;27.07;;
13849;SDS011;6995;52.618;13.488;2022-11-18T10:23:17;29.77;;;27.70;;
13849;SDS011;6995;52.618;13.488;2022-11-18T10:25:55;32.87;;;30.77;;
13849;SDS011;6995;52.618;13.488;2022-11-18T10:28:24;30.00;;;28.03;;
13849;SDS011;6995;52.618;13.488;2022-11-18T10:30:53;31.27;;;29.27;;
13849;SDS011;6995;52.618;13.488;2022-11-18T10:33:28;34.53;;;32.43;;
13849;SDS011;6995;52.618;13.488;2022-11-18T10:36:08;38.57;;;36.30;;
13849;SDS011;6995;52.618;13.488;2022-11-18T10:38:35;38.00;;;35.70;;
13849;SDS011;6995;52.618;13.488;2022-11-18T10:41:01;37.00;;;34.90;;
13849;SDS011;6995;52.618;13.488;2022-11-18T10:51:33;36.53;;;34.47;;
13849;SDS011;6995;52.618;13.488;2022-11-18T10:54:21;36.80;;;34.37;;
13849;SDS011;6995;52.618;13.488;2022-11-18T11:04:45;31.73;;;29.73;;
13849;SDS011;6995;52.618;13.488;2022-11-18T11:12:42;31.97;;;30.03;;
13849;SDS011;6995;52.618;13.488;2022-11-18T11:15:46;29.40;;;27.30;;
13849;SDS011;6995;52.618;13.488;2022-11-18T11:21:08;29.47;;;27.57;;
13849;SDS011;6995;52.618;13.488;2022-11-18T11:23:47;32.03;;;30.13;;
13849;SDS011;6995;52.618;13.488;2022-11-18T11:27:16;31.03;;;29.07;;
13849;SDS011;6995;52.618;13.488;2022-11-18T11:29:45;29.37;;;27.57;;
13849;SDS011;6995;52.618;13.488;2022-11-18T11:35:19;30.70;;;28.63;;
13849;SDS011;6995;52.618;13.488;2022-11-18T11:50:29;28.97;;;27.07;;
13849;SDS011;6995;52.618;13.488;2022-11-18T11:57:03;28.70;;;27.03;;
13849;SDS011;6995;52.618;13.488;2022-11-18T12:05:13;29.67;;;27.97;;
13849;SDS011;6995;52.618;13.488;2022-11-18T12:08:00;30.97;;;29.13;;
13849;SDS011;6995;52.618;13.488;2022-11-18T12:10:40;31.73;;;29.83;;
13849;SDS011;6995;52.618;13.488;2022-11-18T12:13:36;28.60;;;26.80;;
13849;SDS011;6995;52.618;13.488;2022-11-18T12:19:00;29.57;;;27.83;;
13849;SDS011;6995;52.618;13.488;2022-11-18T12:26:56;28.67;;;27.00;;
13849;SDS011;6995;52.618;13.488;2022-11-18T12:29:52;28.67;;;27.03;;
13849;SDS011;6995;52.618;13.488;2022-11-18T12:32:39;27.80;;;26.20;;
13849;SDS011;6995;52.618;13.488;2022-11-18T12:40:29;27.73;;;25.87;;
13849;SDS011;6995;52.618;13.488;2022-11-18T12:42:58;26.13;;;24.53;;
13849;SDS011;6995;52.618;13.488;2022-11-18T12:50:48;28.77;;;27.07;;
13849;SDS011;6995;52.618;13.488;2022-11-18T12:53:34;28.47;;;26.87;;
13849;SDS011;6995;52.618;13.488;2022-11-18T12:56:09;30.43;;;28.37;;
13849;SDS011;6995;52.618;13.488;2022-11-18T12:58:52;29.60;;;27.23;;
13849;SDS011;6995;52.618;13.488;2022-11-18T13:01:20;30.13;;;28.43;;
13849;SDS011;6995;52.618;13.488;2022-11-18T13:03:51;32.50;;;30.23;;
13849;SDS011;6995;52.618;13.488;2022-11-18T13:08:56;37.77;;;35.53;;
13849;SDS011;6995;52.618;13.488;2022-11-18T13:11:25;42.40;;;32.73;;
13849;SDS011;6995;52.618;13.488;2022-11-18T13:14:13;30.43;;;28.30;;
13849;SDS011;6995;52.618;13.488;2022-11-18T13:17:01;38.37;;;29.93;;
13849;SDS011;6995;52.618;13.488;2022-11-18T13:20:05;29.10;;;27.43;;
13849;SDS011;6995;52.618;13.488;2022-11-18T13:23:18;29.20;;;27.17;;
13849;SDS011;6995;52.618;13.488;2022-11-18T13:26:14;27.67;;;26.20;;
13849;SDS011;6995;52.618;13.488;2022-11-18T13:31:26;27.53;;;26.00;;
13849;SDS011;6995;52.618;13.488;2022-11-18T13:34:25;27.07;;;25.60;;
13849;SDS011;6995;52.618;13.488;2022-11-18T13:36:54;28.67;;;27.17;;
13849;SDS011;6995;52.618;13.488;2022-11-18T13:39:29;28.23;;;26.73;;
13849;SDS011;6995;52.618;13.488;2022-11-18T13:42:03;26.50;;;25.10;;
13849;SDS011;6995;52.618;13.488;2022-11-18T13:44:32;25.87;;;24.47;;
13849;SDS011;6995;52.618;13.488;2022-11-18T13:49:56;28.23;;;26.20;;
13849;SDS011;6995;52.618;13.488;2022-11-18T13:55:53;29.67;;;26.73;;
13849;SDS011;6995;52.618;13.488;2022-11-18T13:58:54;26.13;;;24.73;;
13849;SDS011;6995;52.618;13.488;2022-11-18T14:01:32;26.00;;;24.40;;
13849;SDS011;6995;52.618;13.488;2022-11-18T14:04:00;26.27;;;24.87;;
13849;SDS011;6995;52.618;13.488;2022-11-18T14:06:35;26.10;;;24.47;;
13849;SDS011;6995;52.618;13.488;2022-11-18T14:11:43;25.83;;;24.37;;
13849;SDS011;6995;52.618;13.488;2022-11-18T14:14:28;30.20;;;28.30;;
13849;SDS011;6995;52.618;13.488;2022-11-18T14:19:54;29.53;;;27.77;;
13849;SDS011;6995;52.618;13.488;2022-11-18T14:22:22;27.73;;;26.23;;
13849;SDS011;6995;52.618;13.488;2022-11-18T14:24:56;27.67;;;26.10;;
13849;SDS011;6995;52.618;13.488;2022-11-18T14:27:42;26.80;;;25.40;;
13849;SDS011;6995;52.618;13.488;2022-11-18T14:30:25;26.53;;;25.13;;
13849;SDS011;6995;52.618;13.488;2022-11-18T14:35:35;29.13;;;27.33;;
13849;SDS011;6995;52.618;13.488;2022-11-18T14:38:08;26.03;;;24.53;;
13849;SDS011;6995;52.618;13.488;2022-11-18T14:40:40;29.80;;;28.00;;
13849;SDS011;6995;52.618;13.488;2022-11-18T14:43:06;29.10;;;27.30;;
13849;SDS011;6995;52.618;13.488;2022-11-18T14:45:31;27.10;;;25.50;;
13849;SDS011;6995;52.618;13.488;2022-11-18T14:47:57;27.43;;;25.83;;
13849;SDS011;6995;52.618;13.488;2022-11-18T14:50:23;30.17;;;28.57;;
13849;SDS011;6995;52.618;13.488;2022-11-18T14:52:50;28.87;;;27.27;;
13849;SDS011;6995;52.618;13.488;2022-11-18T14:55:16;28.00;;;26.50;;
13849;SDS011;6995;52.618;13.488;2022-11-18T14:57:41;30.13;;;27.97;;
13849;SDS011;6995;52.618;13.488;2022-11-18T15:00:09;29.17;;;27.57;;
13849;SDS011;6995;52.618;13.488;2022-11-18T15:02:38;28.13;;;26.70;;
13849;SDS011;6995;52.618;13.488;2022-11-18T15:05:03;27.67;;;26.07;;
13849;SDS011;6995;52.618;13.488;2022-11-18T15:07:31;26.47;;;25.07;;
13849;SDS011;6995;52.618;13.488;2022-11-18T15:09:56;24.90;;;23.53;;
13849;SDS011;6995;52.618;13.488;2022-11-18T15:12:22;26.43;;;24.97;;
13849;SDS011;6995;52.618;13.488;2022-11-18T15:14:48;26.57;;;25.07;;
13849;SDS011;6995;52.618;13.488;2022-11-18T15:17:16;28.23;;;26.23;;
13849;SDS011;6995;52.618;13.488;2022-11-18T15:19:46;27.87;;;26.23;;
13849;SDS011;6995;52.618;13.488;2022-11-18T15:22:12;29.38;;;27.75;;
13849;SDS011;6995;52.618;13.488;2022-11-18T15:24:37;27.40;;;25.97;;
13849;SDS011;6995;52.618;13.488;2022-11-18T15:27:03;29.87;;;28.17;;
13849;SDS011;6995;52.618;13.488;2022-11-18T15:29:29;27.17;;;25.57;;
13849;SDS011;6995;52.618;13.488;2022-11-18T15:31:55;27.03;;;25.43;;
13849;SDS011;6995;52.618;13.488;2022-11-18T15:34:21;27.27;;;25.77;;
13849;SDS011;6995;52.618;13.488;2022-11-18T15:36:47;27.30;;;25.70;;
13849;SDS011;6995;52.618;13.488;2022-11-18T15:39:13;27.37;;;25.87;;
13849;SDS011;6995;52.618;13.488;2022-11-18T15:41:39;31.60;;;29.23;;
13849;SDS011;6995;52.618;13.488;2022-11-18T15:44:19;31.80;;;29.90;;
13849;SDS011;6995;52.618;13.488;2022-11-18T15:46:44;31.80;;;29.80;;
13849;SDS011;6995;52.618;13.488;2022-11-18T15:49:12;29.40;;;27.53;;
13849;SDS011;6995;52.618;13.488;2022-11-18T15:51:38;31.30;;;29.40;;
13849;SDS011;6995;52.618;13.488;2022-11-18T15:54:05;34.33;;;32.13;;
13849;SDS011;6995;52.618;13.488;2022-11-18T15:56:30;34.03;;;31.83;;
13849;SDS011;6995;52.618;13.488;2022-11-18T15:59:04;31.40;;;29.20;;
13849;SDS011;6995;52.618;13.488;2022-11-18T16:01:35;30.00;;;28.03;;
13849;SDS011;6995;52.618;13.488;2022-11-18T16:04:09;34.93;;;32.90;;
13849;SDS011;6995;52.618;13.488;2022-11-18T16:06:36;31.77;;;29.77;;
13849;SDS011;6995;52.618;13.488;2022-11-18T16:09:08;31.67;;;29.70;;
13849;SDS011;6995;52.618;13.488;2022-11-18T16:11:34;34.13;;;32.03;;
13849;SDS011;6995;52.618;13.488;2022-11-18T16:14:19;34.87;;;32.77;;
13849;SDS011;6995;52.618;13.488;2022-11-18T16:16:46;40.07;;;37.60;;
13849;SDS011;6995;52.618;13.488;2022-11-18T16:19:15;37.63;;;35.43;;
13849;SDS011;6995;52.618;13.488;2022-11-18T16:21:43;30.47;;;28.57;;
13849;SDS011;6995;52.618;13.488;2022-11-18T16:24:12;28.77;;;27.07;;
13849;SDS011;6995;52.618;13.488;2022-11-18T16:26:41;33.90;;;31.87;;
13849;SDS011;6995;52.618;13.488;2022-11-18T16:29:07;30.63;;;28.73;;
13849;SDS011;6995;52.618;13.488;2022-11-18T16:31:35;33.23;;;31.13;;
13849;SDS011;6995;52.618;13.488;2022-11-18T16:36:46;34.10;;;31.43;;
13849;SDS011;6995;52.618;13.488;2022-11-18T16:39:14;36.60;;;34.30;;
13849;SDS011;6995;52.618;13.488;2022-11-18T16:41:44;32.53;;;30.50;;
13849;SDS011;6995;52.618;13.488;2022-11-18T16:44:11;32.20;;;29.93;;
13849;SDS011;6995;52.618;13.488;2022-11-18T16:46:39;34.17;;;32.07;;
13849;SDS011;6995;52.618;13.488;2022-11-18T16:49:17;32.00;;;29.83;;
13849;SDS011;6995;52.618;13.488;2022-11-18T16:51:45;36.23;;;33.90;;
13849;SDS011;6995;52.618;13.488;2022-11-18T16:54:19;31.10;;;29.07;;
13849;SDS011;6995;52.618;13.488;2022-11-18T16:56:50;37.07;;;34.63;;
13849;SDS011;6995;52.618;13.488;2022-11-18T17:02:06;32.97;;;30.77;;
13849;SDS011;6995;52.618;13.488;2022-11-18T17:04:37;33.77;;;31.53;;
13849;SDS011;6995;52.618;13.488;2022-11-18T17:07:03;31.37;;;29.07;;